sensor_id;sensor_type;location;lat;lon;timestamp;temperature;humidity
47590;DHT22;33316;52.298;9.056;2023-03-01T00:01:02;0.50;76.80
47590;DHT22;33316;52.298;9.056;2023-03-01T00:03:30;0.50;77.00
47590;DHT22;33316;52.298;9.056;2023-03-01T00:05:57;0.50;77.00
47590;DHT22;33316;52.298;9.056;2023-03-01T00:08:25;0.40;77.10
47590;DHT22;33316;52.298;9.056;2023-03-01T00:10:59;0.40;78.00
47590;DHT22;33316;52.298;9.056;2023-03-01T00:13:26;0.40;77.20
47590;DHT22;33316;52.298;9.056;2023-03-01T00:15:52;0.40;77.30
47590;DHT22;33316;52.298;9.056;2023-03-01T00:18:19;0.40;77.20
47590;DHT22;33316;52.298;9.056;2023-03-01T00:20:50;0.30;77.10
47590;DHT22;33316;52.298;9.056;2023-03-01T00:23:17;0.30;77.30
47590;DHT22;33316;52.298;9.056;2023-03-01T00:25:43;0.30;77.40
47590;DHT22;33316;52.298;9.056;2023-03-01T00:28:10;0.20;77.40
47590;DHT22;33316;52.298;9.056;2023-03-01T00:30:37;0.20;77.40
47590;DHT22;33316;52.298;9.056;2023-03-01T00:33:03;0.20;77.30
47590;DHT22;33316;52.298;9.056;2023-03-01T00:35:31;0.10;77.30
47590;DHT22;33316;52.298;9.056;2023-03-01T00:37:59;0.10;77.20
47590;DHT22;33316;52.298;9.056;2023-03-01T00:40:27;0.10;77.10
47590;DHT22;33316;52.298;9.056;2023-03-01T00:42:53;0.10;77.10
47590;DHT22;33316;52.298;9.056;2023-03-01T00:45:20;0.00;77.20
47590;DHT22;33316;52.298;9.056;2023-03-01T00:47:47;0.00;77.30
47590;DHT22;33316;52.298;9.056;2023-03-01T00:50:14;-0.10;77.50
47590;DHT22;33316;52.298;9.056;2023-03-01T00:52:41;0.00;77.60
47590;DHT22;33316;52.298;9.056;2023-03-01T00:55:09;-0.10;77.70
47590;DHT22;33316;52.298;9.056;2023-03-01T00:57:36;-0.10;77.80
47590;DHT22;33316;52.298;9.056;2023-03-01T01:00:03;-0.10;77.80
47590;DHT22;33316;52.298;9.056;2023-03-01T01:02:31;-0.20;77.90
47590;DHT22;33316;52.298;9.056;2023-03-01T01:04:58;-0.20;78.00
47590;DHT22;33316;52.298;9.056;2023-03-01T01:07:25;-0.20;78.00
47590;DHT22;33316;52.298;9.056;2023-03-01T01:09:51;-0.20;78.90
47590;DHT22;33316;52.298;9.056;2023-03-01T01:12:19;-0.20;78.10
47590;DHT22;33316;52.298;9.056;2023-03-01T01:14:46;-0.30;78.10
47590;DHT22;33316;52.298;9.056;2023-03-01T01:17:12;-0.30;78.10
47590;DHT22;33316;52.298;9.056;2023-03-01T01:19:39;-0.30;78.20
47590;DHT22;33316;52.298;9.056;2023-03-01T01:22:05;-0.30;78.40
47590;DHT22;33316;52.298;9.056;2023-03-01T01:24:32;-0.30;78.20
47590;DHT22;33316;52.298;9.056;2023-03-01T01:26:59;-0.40;78.20
47590;DHT22;33316;52.298;9.056;2023-03-01T01:29:27;-0.40;78.20
47590;DHT22;33316;52.298;9.056;2023-03-01T01:31:53;-0.40;78.30
47590;DHT22;33316;52.298;9.056;2023-03-01T01:34:20;-0.40;78.20
47590;DHT22;33316;52.298;9.056;2023-03-01T01:36:48;-0.50;78.20
47590;DHT22;33316;52.298;9.056;2023-03-01T01:39:14;-0.50;78.40
47590;DHT22;33316;52.298;9.056;2023-03-01T01:41:41;-0.50;78.40
47590;DHT22;33316;52.298;9.056;2023-03-01T01:44:10;-0.50;78.40
47590;DHT22;33316;52.298;9.056;2023-03-01T01:46:39;-0.60;78.40
47590;DHT22;33316;52.298;9.056;2023-03-01T01:49:07;-0.60;78.40
47590;DHT22;33316;52.298;9.056;2023-03-01T01:51:37;-0.60;78.50
47590;DHT22;33316;52.298;9.056;2023-03-01T01:54:06;-0.60;78.70
47590;DHT22;33316;52.298;9.056;2023-03-01T01:56:33;-0.70;78.60
47590;DHT22;33316;52.298;9.056;2023-03-01T01:59:00;-0.70;79.40
47590;DHT22;33316;52.298;9.056;2023-03-01T02:01:27;-0.70;78.60
47590;DHT22;33316;52.298;9.056;2023-03-01T02:03:55;-0.70;78.50
47590;DHT22;33316;52.298;9.056;2023-03-01T02:06:28;-0.70;78.60
47590;DHT22;33316;52.298;9.056;2023-03-01T02:08:57;-0.80;78.60
47590;DHT22;33316;52.298;9.056;2023-03-01T02:11:24;-0.80;78.70
47590;DHT22;33316;52.298;9.056;2023-03-01T02:13:51;-0.80;78.80
47590;DHT22;33316;52.298;9.056;2023-03-01T02:16:18;-0.80;78.80
47590;DHT22;33316;52.298;9.056;2023-03-01T02:18:45;-0.80;78.80
47590;DHT22;33316;52.298;9.056;2023-03-01T02:21:17;-0.90;78.80
47590;DHT22;33316;52.298;9.056;2023-03-01T02:23:46;-0.90;78.70
47590;DHT22;33316;52.298;9.056;2023-03-01T02:26:16;-0.90;78.80
47590;DHT22;33316;52.298;9.056;2023-03-01T02:28:45;-0.90;78.80
47590;DHT22;33316;52.298;9.056;2023-03-01T02:31:14;-1.00;78.80
47590;DHT22;33316;52.298;9.056;2023-03-01T02:33:58;-1.00;78.80
47590;DHT22;33316;52.298;9.056;2023-03-01T02:36:26;-1.00;79.00
47590;DHT22;33316;52.298;9.056;2023-03-01T02:38:55;-1.00;79.00
47590;DHT22;33316;52.298;9.056;2023-03-01T02:41:23;-1.00;79.10
47590;DHT22;33316;52.298;9.056;2023-03-01T02:43:52;-1.00;79.20
47590;DHT22;33316;52.298;9.056;2023-03-01T02:46:20;-1.10;79.20
47590;DHT22;33316;52.298;9.056;2023-03-01T02:48:48;-1.10;79.20
47590;DHT22;33316;52.298;9.056;2023-03-01T02:51:21;-1.10;79.20
47590;DHT22;33316;52.298;9.056;2023-03-01T02:53:51;-1.10;79.30
47590;DHT22;33316;52.298;9.056;2023-03-01T02:56:20;-1.10;79.30
47590;DHT22;33316;52.298;9.056;2023-03-01T02:58:47;-1.10;79.30
47590;DHT22;33316;52.298;9.056;2023-03-01T03:01:18;-1.20;79.20
47590;DHT22;33316;52.298;9.056;2023-03-01T03:03:45;-1.20;79.20
47590;DHT22;33316;52.298;9.056;2023-03-01T03:06:12;-1.20;79.20
47590;DHT22;33316;52.298;9.056;2023-03-01T03:08:38;-1.20;79.20
47590;DHT22;33316;52.298;9.056;2023-03-01T03:11:05;-1.20;79.30
47590;DHT22;33316;52.298;9.056;2023-03-01T03:13:33;-1.30;79.40
47590;DHT22;33316;52.298;9.056;2023-03-01T03:16:00;-1.30;79.30
47590;DHT22;33316;52.298;9.056;2023-03-01T03:18:30;-1.30;79.40
47590;DHT22;33316;52.298;9.056;2023-03-01T03:20:56;-1.30;79.40
47590;DHT22;33316;52.298;9.056;2023-03-01T03:23:23;-1.30;79.40
47590;DHT22;33316;52.298;9.056;2023-03-01T03:25:50;-1.30;79.40
47590;DHT22;33316;52.298;9.056;2023-03-01T03:28:16;-1.30;79.40
47590;DHT22;33316;52.298;9.056;2023-03-01T03:30:43;-1.40;79.20
47590;DHT22;33316;52.298;9.056;2023-03-01T03:33:10;-1.40;79.10
47590;DHT22;33316;52.298;9.056;2023-03-01T03:35:39;-1.40;79.10
47590;DHT22;33316;52.298;9.056;2023-03-01T03:38:07;-1.40;79.10
47590;DHT22;33316;52.298;9.056;2023-03-01T03:40:41;-1.40;79.10
47590;DHT22;33316;52.298;9.056;2023-03-01T03:43:08;-1.40;79.20
47590;DHT22;33316;52.298;9.056;2023-03-01T03:45:35;-1.50;79.20
47590;DHT22;33316;52.298;9.056;2023-03-01T03:48:03;-1.50;80.00
47590;DHT22;33316;52.298;9.056;2023-03-01T03:50:30;-1.50;79.30
47590;DHT22;33316;52.298;9.056;2023-03-01T03:52:59;-1.50;79.40
47590;DHT22;33316;52.298;9.056;2023-03-01T03:55:26;-1.50;79.50
47590;DHT22;33316;52.298;9.056;2023-03-01T03:57:56;-1.60;79.40
47590;DHT22;33316;52.298;9.056;2023-03-01T04:00:23;-1.60;79.50
47590;DHT22;33316;52.298;9.056;2023-03-01T04:02:50;-1.60;79.60
47590;DHT22;33316;52.298;9.056;2023-03-01T04:05:21;-1.60;79.60
47590;DHT22;33316;52.298;9.056;2023-03-01T04:07:48;-1.60;79.70
47590;DHT22;33316;52.298;9.056;2023-03-01T04:10:28;-1.60;79.70
47590;DHT22;33316;52.298;9.056;2023-03-01T04:12:55;-1.70;79.70
47590;DHT22;33316;52.298;9.056;2023-03-01T04:15:22;-1.70;79.90
47590;DHT22;33316;52.298;9.056;2023-03-01T04:17:49;-1.70;79.90
47590;DHT22;33316;52.298;9.056;2023-03-01T04:20:17;-1.70;79.90
47590;DHT22;33316;52.298;9.056;2023-03-01T04:22:50;-1.70;79.80
47590;DHT22;33316;52.298;9.056;2023-03-01T04:25:17;-1.70;79.90
47590;DHT22;33316;52.298;9.056;2023-03-01T04:27:45;-1.70;79.90
47590;DHT22;33316;52.298;9.056;2023-03-01T04:30:11;-1.80;79.90
47590;DHT22;33316;52.298;9.056;2023-03-01T04:32:38;-1.80;79.90
47590;DHT22;33316;52.298;9.056;2023-03-01T04:35:05;-1.80;80.00
47590;DHT22;33316;52.298;9.056;2023-03-01T04:37:31;-1.80;80.20
47590;DHT22;33316;52.298;9.056;2023-03-01T04:39:58;-1.80;80.40
47590;DHT22;33316;52.298;9.056;2023-03-01T04:42:24;-1.80;80.50
47590;DHT22;33316;52.298;9.056;2023-03-01T04:44:53;-1.90;80.50
47590;DHT22;33316;52.298;9.056;2023-03-01T04:47:19;-1.90;80.50
47590;DHT22;33316;52.298;9.056;2023-03-01T04:49:46;-1.90;80.50
47590;DHT22;33316;52.298;9.056;2023-03-01T04:52:12;-1.90;80.50
47590;DHT22;33316;52.298;9.056;2023-03-01T04:54:39;-1.90;80.50
47590;DHT22;33316;52.298;9.056;2023-03-01T04:57:06;-1.90;80.50
47590;DHT22;33316;52.298;9.056;2023-03-01T04:59:32;-1.90;80.60
47590;DHT22;33316;52.298;9.056;2023-03-01T05:02:02;-2.00;81.40
47590;DHT22;33316;52.298;9.056;2023-03-01T05:04:29;-1.90;80.70
47590;DHT22;33316;52.298;9.056;2023-03-01T05:06:56;-2.00;80.80
47590;DHT22;33316;52.298;9.056;2023-03-01T05:09:24;-2.00;81.00
47590;DHT22;33316;52.298;9.056;2023-03-01T05:11:50;-2.00;81.20
47590;DHT22;33316;52.298;9.056;2023-03-01T05:14:17;-1.90;81.20
47590;DHT22;33316;52.298;9.056;2023-03-01T05:16:43;-2.00;81.00
47590;DHT22;33316;52.298;9.056;2023-03-01T05:19:11;-2.00;81.00
47590;DHT22;33316;52.298;9.056;2023-03-01T05:21:40;-2.00;80.90
47590;DHT22;33316;52.298;9.056;2023-03-01T05:24:21;-2.00;80.90
47590;DHT22;33316;52.298;9.056;2023-03-01T05:26:48;-2.00;80.90
47590;DHT22;33316;52.298;9.056;2023-03-01T05:29:15;-2.00;81.00
47590;DHT22;33316;52.298;9.056;2023-03-01T05:31:42;-2.00;81.20
47590;DHT22;33316;52.298;9.056;2023-03-01T05:34:08;-2.00;81.20
47590;DHT22;33316;52.298;9.056;2023-03-01T05:36:39;-2.10;81.00
47590;DHT22;33316;52.298;9.056;2023-03-01T05:39:05;-2.10;81.00
47590;DHT22;33316;52.298;9.056;2023-03-01T05:41:32;-2.10;80.90
47590;DHT22;33316;52.298;9.056;2023-03-01T05:43:59;-2.10;80.70
47590;DHT22;33316;52.298;9.056;2023-03-01T05:46:25;-2.10;80.60
47590;DHT22;33316;52.298;9.056;2023-03-01T05:48:52;-2.10;80.80
47590;DHT22;33316;52.298;9.056;2023-03-01T05:51:18;-2.10;80.80
47590;DHT22;33316;52.298;9.056;2023-03-01T05:53:46;-2.20;80.60
47590;DHT22;33316;52.298;9.056;2023-03-01T05:56:12;-2.20;80.60
47590;DHT22;33316;52.298;9.056;2023-03-01T05:58:39;-2.20;80.50
47590;DHT22;33316;52.298;9.056;2023-03-01T06:01:10;-2.20;80.40
47590;DHT22;33316;52.298;9.056;2023-03-01T06:03:37;-2.20;80.40
47590;DHT22;33316;52.298;9.056;2023-03-01T06:06:03;-2.20;80.40
47590;DHT22;33316;52.298;9.056;2023-03-01T06:08:30;-2.30;80.40
47590;DHT22;33316;52.298;9.056;2023-03-01T06:10:58;-2.30;80.40
47590;DHT22;33316;52.298;9.056;2023-03-01T06:13:24;-2.30;80.40
47590;DHT22;33316;52.298;9.056;2023-03-01T06:15:51;-2.30;80.40
47590;DHT22;33316;52.298;9.056;2023-03-01T06:18:18;-2.30;80.50
47590;DHT22;33316;52.298;9.056;2023-03-01T06:20:44;-2.30;80.60
47590;DHT22;33316;52.298;9.056;2023-03-01T06:23:11;-2.30;80.60
47590;DHT22;33316;52.298;9.056;2023-03-01T06:25:37;-2.30;80.70
47590;DHT22;33316;52.298;9.056;2023-03-01T06:28:05;-2.30;80.70
47590;DHT22;33316;52.298;9.056;2023-03-01T06:30:32;-2.30;80.70
47590;DHT22;33316;52.298;9.056;2023-03-01T06:32:58;-2.30;80.80
47590;DHT22;33316;52.298;9.056;2023-03-01T06:35:26;-2.20;80.80
47590;DHT22;33316;52.298;9.056;2023-03-01T06:37:55;-2.20;80.80
47590;DHT22;33316;52.298;9.056;2023-03-01T06:40:22;-2.10;80.80
47590;DHT22;33316;52.298;9.056;2023-03-01T06:42:49;-2.00;80.90
47590;DHT22;33316;52.298;9.056;2023-03-01T06:45:18;-2.00;80.90
47590;DHT22;33316;52.298;9.056;2023-03-01T06:47:45;-1.90;80.90
47590;DHT22;33316;52.298;9.056;2023-03-01T06:50:12;-1.80;81.00
47590;DHT22;33316;52.298;9.056;2023-03-01T06:52:39;-1.70;80.90
47590;DHT22;33316;52.298;9.056;2023-03-01T06:55:05;-1.60;80.70
47590;DHT22;33316;52.298;9.056;2023-03-01T06:57:32;-1.50;80.70
47590;DHT22;33316;52.298;9.056;2023-03-01T06:59:59;-1.50;80.40
47590;DHT22;33316;52.298;9.056;2023-03-01T07:02:26;-1.40;80.20
47590;DHT22;33316;52.298;9.056;2023-03-01T07:04:53;-1.30;80.20
47590;DHT22;33316;52.298;9.056;2023-03-01T07:07:19;-1.30;80.00
47590;DHT22;33316;52.298;9.056;2023-03-01T07:09:46;-1.20;79.90
47590;DHT22;33316;52.298;9.056;2023-03-01T07:12:13;-1.10;80.00
47590;DHT22;33316;52.298;9.056;2023-03-01T07:14:40;-1.10;79.90
47590;DHT22;33316;52.298;9.056;2023-03-01T07:17:06;-1.00;80.00
47590;DHT22;33316;52.298;9.056;2023-03-01T07:19:34;-0.90;80.10
47590;DHT22;33316;52.298;9.056;2023-03-01T07:22:01;-0.90;80.10
47590;DHT22;33316;52.298;9.056;2023-03-01T07:24:29;-0.80;80.20
47590;DHT22;33316;52.298;9.056;2023-03-01T07:26:56;-0.70;80.30
47590;DHT22;33316;52.298;9.056;2023-03-01T07:29:22;-0.60;80.20
47590;DHT22;33316;52.298;9.056;2023-03-01T07:31:49;-0.60;80.00
47590;DHT22;33316;52.298;9.056;2023-03-01T07:34:15;-0.50;80.10
47590;DHT22;33316;52.298;9.056;2023-03-01T07:36:43;-0.50;80.10
47590;DHT22;33316;52.298;9.056;2023-03-01T07:39:10;-0.50;80.10
47590;DHT22;33316;52.298;9.056;2023-03-01T07:41:37;-0.40;80.30
47590;DHT22;33316;52.298;9.056;2023-03-01T07:44:03;-0.40;80.30
47590;DHT22;33316;52.298;9.056;2023-03-01T07:46:30;-0.30;80.40
47590;DHT22;33316;52.298;9.056;2023-03-01T07:48:57;-0.30;80.40
47590;DHT22;33316;52.298;9.056;2023-03-01T07:51:24;-0.20;80.40
47590;DHT22;33316;52.298;9.056;2023-03-01T07:53:51;-0.10;80.30
47590;DHT22;33316;52.298;9.056;2023-03-01T07:56:18;0.00;80.20
47590;DHT22;33316;52.298;9.056;2023-03-01T07:58:46;0.10;80.30
47590;DHT22;33316;52.298;9.056;2023-03-01T08:01:13;0.20;80.40
47590;DHT22;33316;52.298;9.056;2023-03-01T08:03:40;0.30;80.40
47590;DHT22;33316;52.298;9.056;2023-03-01T08:06:09;0.30;80.30
47590;DHT22;33316;52.298;9.056;2023-03-01T08:08:36;0.40;80.30
47590;DHT22;33316;52.298;9.056;2023-03-01T08:11:05;0.50;80.30
47590;DHT22;33316;52.298;9.056;2023-03-01T08:13:32;0.60;80.30
47590;DHT22;33316;52.298;9.056;2023-03-01T08:16:00;0.70;80.30
47590;DHT22;33316;52.298;9.056;2023-03-01T08:18:27;0.70;80.40
47590;DHT22;33316;52.298;9.056;2023-03-01T08:20:53;0.70;80.40
47590;DHT22;33316;52.298;9.056;2023-03-01T08:23:20;0.80;80.60
47590;DHT22;33316;52.298;9.056;2023-03-01T08:25:47;0.80;80.40
47590;DHT22;33316;52.298;9.056;2023-03-01T08:28:14;0.90;80.20
47590;DHT22;33316;52.298;9.056;2023-03-01T08:30:41;0.90;80.10
47590;DHT22;33316;52.298;9.056;2023-03-01T08:33:07;0.90;80.20
47590;DHT22;33316;52.298;9.056;2023-03-01T08:35:34;1.00;80.30
47590;DHT22;33316;52.298;9.056;2023-03-01T08:38:01;1.10;80.20
47590;DHT22;33316;52.298;9.056;2023-03-01T08:40:27;1.20;80.30
47590;DHT22;33316;52.298;9.056;2023-03-01T08:42:54;1.20;80.20
47590;DHT22;33316;52.298;9.056;2023-03-01T08:45:22;1.30;80.40
47590;DHT22;33316;52.298;9.056;2023-03-01T08:47:51;1.40;80.50
47590;DHT22;33316;52.298;9.056;2023-03-01T08:50:18;1.50;80.30
47590;DHT22;33316;52.298;9.056;2023-03-01T08:52:44;1.50;80.50
47590;DHT22;33316;52.298;9.056;2023-03-01T08:55:11;1.60;80.50
47590;DHT22;33316;52.298;9.056;2023-03-01T08:57:40;1.60;80.50
47590;DHT22;33316;52.298;9.056;2023-03-01T09:00:07;1.70;80.90
47590;DHT22;33316;52.298;9.056;2023-03-01T09:02:36;1.80;81.10
47590;DHT22;33316;52.298;9.056;2023-03-01T09:05:03;1.80;81.30
47590;DHT22;33316;52.298;9.056;2023-03-01T09:07:29;1.90;81.00
47590;DHT22;33316;52.298;9.056;2023-03-01T09:09:56;2.00;80.50
47590;DHT22;33316;52.298;9.056;2023-03-01T09:12:22;2.10;80.40
47590;DHT22;33316;52.298;9.056;2023-03-01T09:14:50;2.10;80.40
47590;DHT22;33316;52.298;9.056;2023-03-01T09:17:16;2.20;80.90
47590;DHT22;33316;52.298;9.056;2023-03-01T09:19:44;2.30;80.70
47590;DHT22;33316;52.298;9.056;2023-03-01T09:22:11;2.40;80.60
47590;DHT22;33316;52.298;9.056;2023-03-01T09:24:37;2.40;80.20
47590;DHT22;33316;52.298;9.056;2023-03-01T09:27:04;2.50;79.80
47590;DHT22;33316;52.298;9.056;2023-03-01T09:29:34;2.50;79.50
47590;DHT22;33316;52.298;9.056;2023-03-01T09:32:01;2.60;79.50
47590;DHT22;33316;52.298;9.056;2023-03-01T09:34:27;2.70;79.40
47590;DHT22;33316;52.298;9.056;2023-03-01T09:36:56;2.80;79.50
47590;DHT22;33316;52.298;9.056;2023-03-01T09:39:23;2.80;78.80
47590;DHT22;33316;52.298;9.056;2023-03-01T09:41:52;2.90;78.30
47590;DHT22;33316;52.298;9.056;2023-03-01T09:44:24;2.90;78.30
47590;DHT22;33316;52.298;9.056;2023-03-01T09:46:53;3.00;78.00
47590;DHT22;33316;52.298;9.056;2023-03-01T09:49:21;3.10;77.80
47590;DHT22;33316;52.298;9.056;2023-03-01T09:51:53;3.10;77.60
47590;DHT22;33316;52.298;9.056;2023-03-01T09:54:22;3.20;76.90
47590;DHT22;33316;52.298;9.056;2023-03-01T09:56:53;3.30;76.50
47590;DHT22;33316;52.298;9.056;2023-03-01T09:59:25;3.30;76.40
47590;DHT22;33316;52.298;9.056;2023-03-01T10:01:54;3.30;75.70
47590;DHT22;33316;52.298;9.056;2023-03-01T10:04:26;3.40;75.50
47590;DHT22;33316;52.298;9.056;2023-03-01T10:06:57;3.50;75.30
47590;DHT22;33316;52.298;9.056;2023-03-01T10:09:26;3.50;75.10
47590;DHT22;33316;52.298;9.056;2023-03-01T10:11:57;3.60;74.60
47590;DHT22;33316;52.298;9.056;2023-03-01T10:14:28;3.60;74.50
47590;DHT22;33316;52.298;9.056;2023-03-01T10:16:58;3.70;74.40
47590;DHT22;33316;52.298;9.056;2023-03-01T10:19:29;3.70;74.30
47590;DHT22;33316;52.298;9.056;2023-03-01T10:21:57;3.80;74.00
47590;DHT22;33316;52.298;9.056;2023-03-01T10:24:26;3.80;73.80
47590;DHT22;33316;52.298;9.056;2023-03-01T10:26:54;3.80;74.00
47590;DHT22;33316;52.298;9.056;2023-03-01T10:29:22;3.90;73.00
47590;DHT22;33316;52.298;9.056;2023-03-01T10:31:51;3.90;72.90
47590;DHT22;33316;52.298;9.056;2023-03-01T10:34:21;4.00;73.00
47590;DHT22;33316;52.298;9.056;2023-03-01T10:36:49;4.00;72.70
47590;DHT22;33316;52.298;9.056;2023-03-01T10:39:19;4.10;71.60
47590;DHT22;33316;52.298;9.056;2023-03-01T10:41:55;4.10;71.90
47590;DHT22;33316;52.298;9.056;2023-03-01T10:44:40;4.20;70.00
47590;DHT22;33316;52.298;9.056;2023-03-01T10:47:12;4.20;69.90
47590;DHT22;33316;52.298;9.056;2023-03-01T10:49:39;4.20;69.50
47590;DHT22;33316;52.298;9.056;2023-03-01T10:52:17;4.20;70.40
47590;DHT22;33316;52.298;9.056;2023-03-01T10:54:50;4.20;70.00
47590;DHT22;33316;52.298;9.056;2023-03-01T10:57:24;4.30;69.60
47590;DHT22;33316;52.298;9.056;2023-03-01T11:00:00;4.30;69.80
47590;DHT22;33316;52.298;9.056;2023-03-01T11:02:29;4.30;69.80
47590;DHT22;33316;52.298;9.056;2023-03-01T11:04:58;4.30;69.20
47590;DHT22;33316;52.298;9.056;2023-03-01T11:07:32;4.40;69.70
47590;DHT22;33316;52.298;9.056;2023-03-01T11:10:15;4.40;69.30
47590;DHT22;33316;52.298;9.056;2023-03-01T11:12:44;4.40;69.10
47590;DHT22;33316;52.298;9.056;2023-03-01T11:15:19;4.50;68.70
47590;DHT22;33316;52.298;9.056;2023-03-01T11:17:46;4.60;68.30
47590;DHT22;33316;52.298;9.056;2023-03-01T11:20:15;4.60;68.30
47590;DHT22;33316;52.298;9.056;2023-03-01T11:22:45;4.60;66.40
47590;DHT22;33316;52.298;9.056;2023-03-01T11:25:12;4.60;67.00
47590;DHT22;33316;52.298;9.056;2023-03-01T11:27:40;4.60;67.60
47590;DHT22;33316;52.298;9.056;2023-03-01T11:30:15;4.70;67.40
47590;DHT22;33316;52.298;9.056;2023-03-01T11:32:45;4.70;66.20
47590;DHT22;33316;52.298;9.056;2023-03-01T11:35:15;4.70;65.50
47590;DHT22;33316;52.298;9.056;2023-03-01T11:37:44;4.70;65.60
47590;DHT22;33316;52.298;9.056;2023-03-01T11:40:16;4.70;65.40
47590;DHT22;33316;52.298;9.056;2023-03-01T11:42:51;4.70;65.50
47590;DHT22;33316;52.298;9.056;2023-03-01T11:45:19;4.70;66.00
47590;DHT22;33316;52.298;9.056;2023-03-01T11:47:51;4.80;65.60
47590;DHT22;33316;52.298;9.056;2023-03-01T11:50:26;4.80;65.90
47590;DHT22;33316;52.298;9.056;2023-03-01T11:52:57;4.80;66.10
47590;DHT22;33316;52.298;9.056;2023-03-01T11:55:36;4.90;66.10
47590;DHT22;33316;52.298;9.056;2023-03-01T11:58:14;5.00;65.10
47590;DHT22;33316;52.298;9.056;2023-03-01T12:03:35;5.10;64.50
47590;DHT22;33316;52.298;9.056;2023-03-01T12:08:50;5.10;65.30
47590;DHT22;33316;52.298;9.056;2023-03-01T12:11:23;5.20;63.90
47590;DHT22;33316;52.298;9.056;2023-03-01T12:19:36;5.30;64.90
47590;DHT22;33316;52.298;9.056;2023-03-01T12:22:11;5.30;63.60
47590;DHT22;33316;52.298;9.056;2023-03-01T12:24:44;5.30;64.00
47590;DHT22;33316;52.298;9.056;2023-03-01T12:27:17;5.40;64.00
47590;DHT22;33316;52.298;9.056;2023-03-01T12:29:49;5.40;64.80
47590;DHT22;33316;52.298;9.056;2023-03-01T12:32:29;5.40;63.60
47590;DHT22;33316;52.298;9.056;2023-03-01T12:35:09;5.50;62.40
47590;DHT22;33316;52.298;9.056;2023-03-01T12:37:42;5.50;62.80
47590;DHT22;33316;52.298;9.056;2023-03-01T12:40:21;5.50;62.90
47590;DHT22;33316;52.298;9.056;2023-03-01T12:42:54;5.60;63.30
47590;DHT22;33316;52.298;9.056;2023-03-01T12:45:32;5.60;62.80
47590;DHT22;33316;52.298;9.056;2023-03-01T12:48:07;5.70;63.60
47590;DHT22;33316;52.298;9.056;2023-03-01T12:50:38;5.70;64.00
47590;DHT22;33316;52.298;9.056;2023-03-01T12:53:07;5.80;63.40
47590;DHT22;33316;52.298;9.056;2023-03-01T12:55:42;5.80;62.60
47590;DHT22;33316;52.298;9.056;2023-03-01T12:58:12;5.90;62.50
47590;DHT22;33316;52.298;9.056;2023-03-01T13:00:44;5.90;61.60
47590;DHT22;33316;52.298;9.056;2023-03-01T13:03:15;5.90;62.00
47590;DHT22;33316;52.298;9.056;2023-03-01T13:05:47;6.00;62.10
47590;DHT22;33316;52.298;9.056;2023-03-01T13:08:19;6.10;62.20
47590;DHT22;33316;52.298;9.056;2023-03-01T13:10:48;6.10;61.10
47590;DHT22;33316;52.298;9.056;2023-03-01T13:13:19;6.10;60.80
47590;DHT22;33316;52.298;9.056;2023-03-01T13:15:46;6.10;59.90
47590;DHT22;33316;52.298;9.056;2023-03-01T13:18:27;6.10;60.90
47590;DHT22;33316;52.298;9.056;2023-03-01T13:20:56;6.20;60.80
47590;DHT22;33316;52.298;9.056;2023-03-01T13:23:28;6.20;60.70
47590;DHT22;33316;52.298;9.056;2023-03-01T13:26:05;6.30;59.50
47590;DHT22;33316;52.298;9.056;2023-03-01T13:28:40;6.30;59.90
47590;DHT22;33316;52.298;9.056;2023-03-01T13:31:08;6.30;60.00
47590;DHT22;33316;52.298;9.056;2023-03-01T13:33:44;6.40;59.90
47590;DHT22;33316;52.298;9.056;2023-03-01T13:36:45;6.40;57.80
47590;DHT22;33316;52.298;9.056;2023-03-01T13:39:02;6.40;58.60
47590;DHT22;33316;52.298;9.056;2023-03-01T13:41:48;6.40;59.30
47590;DHT22;33316;52.298;9.056;2023-03-01T13:44:17;6.50;59.20
47590;DHT22;33316;52.298;9.056;2023-03-01T13:46:47;6.50;59.00
47590;DHT22;33316;52.298;9.056;2023-03-01T13:49:14;6.50;58.90
47590;DHT22;33316;52.298;9.056;2023-03-01T13:51:43;6.60;59.00
47590;DHT22;33316;52.298;9.056;2023-03-01T13:54:12;6.60;58.30
47590;DHT22;33316;52.298;9.056;2023-03-01T13:56:40;6.60;58.10
47590;DHT22;33316;52.298;9.056;2023-03-01T13:59:12;6.70;58.10
47590;DHT22;33316;52.298;9.056;2023-03-01T14:01:39;6.70;57.00
47590;DHT22;33316;52.298;9.056;2023-03-01T14:04:17;6.70;56.70
47590;DHT22;33316;52.298;9.056;2023-03-01T14:06:47;6.70;57.00
47590;DHT22;33316;52.298;9.056;2023-03-01T14:09:14;6.70;57.50
47590;DHT22;33316;52.298;9.056;2023-03-01T14:14:40;6.80;57.10
47590;DHT22;33316;52.298;9.056;2023-03-01T14:17:12;6.80;56.80
47590;DHT22;33316;52.298;9.056;2023-03-01T14:19:43;6.80;57.50
47590;DHT22;33316;52.298;9.056;2023-03-01T14:22:15;6.80;57.20
47590;DHT22;33316;52.298;9.056;2023-03-01T14:24:44;6.80;57.50
47590;DHT22;33316;52.298;9.056;2023-03-01T14:27:12;6.80;57.30
47590;DHT22;33316;52.298;9.056;2023-03-01T14:29:40;6.80;57.20
47590;DHT22;33316;52.298;9.056;2023-03-01T14:32:10;6.80;57.70
47590;DHT22;33316;52.298;9.056;2023-03-01T14:34:42;6.80;56.80
47590;DHT22;33316;52.298;9.056;2023-03-01T14:37:17;6.80;57.40
47590;DHT22;33316;52.298;9.056;2023-03-01T14:39:45;6.80;57.30
47590;DHT22;33316;52.298;9.056;2023-03-01T14:42:14;6.90;57.60
47590;DHT22;33316;52.298;9.056;2023-03-01T14:44:42;6.90;57.50
47590;DHT22;33316;52.298;9.056;2023-03-01T14:47:10;6.90;57.40
47590;DHT22;33316;52.298;9.056;2023-03-01T14:49:38;6.90;56.10
47590;DHT22;33316;52.298;9.056;2023-03-01T14:52:06;6.90;57.40
47590;DHT22;33316;52.298;9.056;2023-03-01T14:54:37;7.00;56.30
47590;DHT22;33316;52.298;9.056;2023-03-01T14:57:05;7.00;56.80
47590;DHT22;33316;52.298;9.056;2023-03-01T14:59:32;7.00;57.10
47590;DHT22;33316;52.298;9.056;2023-03-01T15:01:59;7.00;57.00
47590;DHT22;33316;52.298;9.056;2023-03-01T15:04:26;7.10;56.50
47590;DHT22;33316;52.298;9.056;2023-03-01T15:06:54;7.00;56.70
47590;DHT22;33316;52.298;9.056;2023-03-01T15:09:21;7.10;56.30
47590;DHT22;33316;52.298;9.056;2023-03-01T15:11:49;7.10;56.40
47590;DHT22;33316;52.298;9.056;2023-03-01T15:14:25;7.10;56.50
47590;DHT22;33316;52.298;9.056;2023-03-01T15:16:52;7.10;56.20
47590;DHT22;33316;52.298;9.056;2023-03-01T15:19:19;7.10;56.10
47590;DHT22;33316;52.298;9.056;2023-03-01T15:21:46;7.10;55.00
47590;DHT22;33316;52.298;9.056;2023-03-01T15:24:16;7.10;55.70
47590;DHT22;33316;52.298;9.056;2023-03-01T15:26:46;7.10;56.50
47590;DHT22;33316;52.298;9.056;2023-03-01T15:29:18;7.10;56.70
47590;DHT22;33316;52.298;9.056;2023-03-01T15:31:53;7.10;55.70
47590;DHT22;33316;52.298;9.056;2023-03-01T15:34:21;7.10;55.70
47590;DHT22;33316;52.298;9.056;2023-03-01T15:36:49;7.10;56.30
47590;DHT22;33316;52.298;9.056;2023-03-01T15:39:27;7.10;56.60
47590;DHT22;33316;52.298;9.056;2023-03-01T15:41:56;7.10;57.00
47590;DHT22;33316;52.298;9.056;2023-03-01T15:44:26;7.10;56.40
47590;DHT22;33316;52.298;9.056;2023-03-01T15:46:53;7.10;55.50
47590;DHT22;33316;52.298;9.056;2023-03-01T15:49:30;7.10;56.10
47590;DHT22;33316;52.298;9.056;2023-03-01T15:51:59;7.10;56.50
47590;DHT22;33316;52.298;9.056;2023-03-01T15:54:28;7.10;56.10
47590;DHT22;33316;52.298;9.056;2023-03-01T15:56:55;7.10;56.60
47590;DHT22;33316;52.298;9.056;2023-03-01T15:59:22;7.10;56.40
47590;DHT22;33316;52.298;9.056;2023-03-01T16:01:50;7.10;56.60
47590;DHT22;33316;52.298;9.056;2023-03-01T16:04:18;7.00;56.40